createdAt,value
2022-10-06T00:00:49.109Z,98508.47
2022-10-06T00:03:16.406Z,98508.88
2022-10-06T00:05:43.565Z,98506.56
2022-10-06T00:08:10.822Z,98518.75
2022-10-06T00:10:37.652Z,98516.75
2022-10-06T00:13:04.298Z,98519.47
2022-10-06T00:15:32.859Z,98526.81
2022-10-06T00:17:59.702Z,98518.41
2022-10-06T00:20:27.568Z,98518.97
2022-10-06T00:22:55.036Z,98516.56
2022-10-06T00:25:24.173Z,98523.81
2022-10-06T00:27:52.456Z,98524.59
2022-10-06T00:30:22.241Z,98513.28
2022-10-06T00:32:57.625Z,98518.34
2022-10-06T00:35:26.078Z,98520.56
2022-10-06T00:37:53.122Z,98516.50
2022-10-06T00:40:20.205Z,98518.88
2022-10-06T00:43:01.336Z,98522.13
2022-10-06T00:45:44.435Z,98530.34
2022-10-06T00:48:23.922Z,98524.16
2022-10-06T00:50:56.456Z,98529.41
2022-10-06T00:53:24.082Z,98533.28
2022-10-06T00:55:50.748Z,98542.94
2022-10-06T00:58:17.644Z,98536.94
2022-10-06T01:00:44.352Z,98538.75
2022-10-06T01:03:21.931Z,98543.88
2022-10-06T01:05:51.273Z,98545.53
2022-10-06T01:08:18.794Z,98540.06
2022-10-06T01:10:45.385Z,98554.47
2022-10-06T01:13:13.334Z,98552.25
2022-10-06T01:15:45.276Z,98549.84
2022-10-06T01:18:15.022Z,98555.53
2022-10-06T01:20:51.785Z,98548.59
2022-10-06T01:23:19.421Z,98557.53
2022-10-06T01:25:46.358Z,98558.97
2022-10-06T01:28:14.384Z,98562.25
2022-10-06T01:30:51.983Z,98565.19
2022-10-06T01:33:19.998Z,98568.44
2022-10-06T01:35:49.174Z,98559.66
2022-10-06T01:38:16.978Z,98569.03
2022-10-06T01:40:45.147Z,98571.03
2022-10-06T01:43:12.417Z,98561.91
2022-10-06T01:45:38.996Z,98573.78
2022-10-06T01:48:06.177Z,98558.97
2022-10-06T01:50:32.980Z,98565.84
2022-10-06T01:52:59.568Z,98575.41
2022-10-06T01:55:27.099Z,98566.66
2022-10-06T01:57:53.918Z,98576.88
2022-10-06T02:00:20.502Z,98573.28
2022-10-06T02:02:47.280Z,98574.34
2022-10-06T02:05:14.667Z,98570.13
2022-10-06T02:07:41.402Z,98579.28
2022-10-06T02:10:08.598Z,98578.22
2022-10-06T02:12:35.368Z,98581.34
2022-10-06T02:15:02.175Z,98576.63
2022-10-06T02:17:29.479Z,98585.53
2022-10-06T02:19:56.231Z,98580.00
2022-10-06T02:22:22.945Z,98583.28
2022-10-06T02:24:49.543Z,98579.81
2022-10-06T02:27:16.274Z,98588.19
2022-10-06T02:29:42.819Z,98581.69
2022-10-06T02:32:09.964Z,98583.47
2022-10-06T02:34:36.495Z,98586.72
2022-10-06T02:37:03.045Z,98588.50
2022-10-06T02:39:29.636Z,98588.50
2022-10-06T02:41:56.165Z,98589.91
2022-10-06T02:44:23.337Z,98586.75
2022-10-06T02:46:50.008Z,98594.53
2022-10-06T02:49:16.701Z,98589.63
2022-10-06T02:51:43.518Z,98598.44
2022-10-06T02:54:10.175Z,98590.78
2022-10-06T02:56:37.949Z,98592.22
2022-10-06T02:59:04.547Z,98602.09
2022-10-06T03:01:31.304Z,98600.09
2022-10-06T03:03:58.181Z,98605.38
2022-10-06T03:06:27.496Z,98604.81
2022-10-06T03:08:59.791Z,98612.28
2022-10-06T03:11:31.391Z,98625.75
2022-10-06T03:13:58.443Z,98618.78
2022-10-06T03:16:34.527Z,98617.34
2022-10-06T03:19:02.046Z,98629.72
2022-10-06T03:21:30.894Z,98624.25
2022-10-06T03:23:58.490Z,98641.69
2022-10-06T03:26:37.507Z,98629.59
2022-10-06T03:29:10.482Z,98638.13
2022-10-06T03:31:38.463Z,98633.47
2022-10-06T03:34:05.449Z,98634.94
2022-10-06T03:36:33.594Z,98638.00
2022-10-06T03:39:00.496Z,98637.88
2022-10-06T03:41:32.560Z,98636.09
2022-10-06T03:44:00.000Z,98638.09
2022-10-06T03:46:28.740Z,98637.25
2022-10-06T03:48:57.349Z,98648.56
2022-10-06T03:51:29.793Z,98648.91
2022-10-06T03:53:57.460Z,98650.56
2022-10-06T03:56:25.241Z,98654.03
2022-10-06T03:58:57.286Z,98656.34
2022-10-06T04:01:35.658Z,98658.47
2022-10-06T04:04:03.101Z,98664.22
2022-10-06T04:06:31.626Z,98665.50
2022-10-06T04:08:59.062Z,98664.69
2022-10-06T04:11:31.455Z,98670.22
2022-10-06T04:14:03.355Z,98666.03
2022-10-06T04:16:34.877Z,98665.63
2022-10-06T04:19:04.235Z,98661.94
2022-10-06T04:21:33.211Z,98668.13
2022-10-06T04:24:00.683Z,98674.13
2022-10-06T04:26:34.003Z,98668.66
2022-10-06T04:29:03.375Z,98675.09
2022-10-06T04:31:36.942Z,98681.47
2022-10-06T04:34:04.515Z,98679.47
2022-10-06T04:36:33.731Z,98692.69
2022-10-06T04:39:02.979Z,98695.66
2022-10-06T04:41:32.266Z,98702.78
2022-10-06T04:43:59.114Z,98703.09
2022-10-06T04:46:43.643Z,98703.09
2022-10-06T04:49:18.601Z,98708.56
2022-10-06T04:51:47.141Z,98703.59
2022-10-06T04:54:14.382Z,98708.34
2022-10-06T04:56:41.010Z,98717.25
2022-10-06T04:59:07.562Z,98721.09
2022-10-06T05:01:36.847Z,98721.22
2022-10-06T05:04:05.951Z,98727.91
2022-10-06T05:06:38.566Z,98732.31
2022-10-06T05:09:06.341Z,98725.84
2022-10-06T05:11:33.365Z,98728.56
2022-10-06T05:14:00.288Z,98733.81
2022-10-06T05:16:28.386Z,98736.84
2022-10-06T05:18:55.685Z,98747.31
2022-10-06T05:21:25.303Z,98741.34
2022-10-06T05:23:52.107Z,98747.13
2022-10-06T05:26:21.853Z,98744.38
2022-10-06T05:28:49.342Z,98752.03
2022-10-06T05:31:19.366Z,98747.53
2022-10-06T05:33:46.667Z,98749.72
2022-10-06T05:36:19.117Z,98754.03
2022-10-06T05:38:46.501Z,98765.03
2022-10-06T05:41:24.297Z,98767.53
2022-10-06T05:43:51.537Z,98773.22
2022-10-06T05:46:21.103Z,98773.94
2022-10-06T05:48:49.414Z,98777.19
2022-10-06T05:51:17.226Z,98787.38
2022-10-06T05:53:44.456Z,98793.53
2022-10-06T05:56:21.559Z,98793.78
2022-10-06T05:58:50.141Z,98798.50
2022-10-06T06:01:41.025Z,98796.69
2022-10-06T06:04:10.641Z,98793.03
2022-10-06T06:06:48.631Z,98802.69
2022-10-06T06:09:20.613Z,98811.84
2022-10-06T06:11:49.314Z,98809.91
2022-10-06T06:14:18.771Z,98817.34
2022-10-06T06:16:46.634Z,98818.81
2022-10-06T06:19:14.339Z,98824.28
2022-10-06T06:21:41.566Z,98821.25
2022-10-06T06:24:08.332Z,98825.38
2022-10-06T06:26:37.205Z,98830.53
2022-10-06T06:29:06.311Z,98832.50
2022-10-06T06:31:35.692Z,98827.50
2022-10-06T06:34:04.733Z,98836.84
2022-10-06T06:36:46.835Z,98839.91
2022-10-06T06:39:14.592Z,98846.03
2022-10-06T06:41:45.086Z,98842.69
2022-10-06T06:44:12.453Z,98841.53
2022-10-06T06:46:40.462Z,98854.81
2022-10-06T06:49:07.644Z,98855.66
2022-10-06T06:51:37.262Z,98861.84
2022-10-06T06:54:05.024Z,98863.00
2022-10-06T06:56:34.961Z,98859.94
2022-10-06T06:59:06.620Z,98866.78
2022-10-06T07:01:33.261Z,98875.09
2022-10-06T07:03:59.927Z,98873.75
2022-10-06T07:06:28.987Z,98873.34
2022-10-06T07:08:58.060Z,98875.84
2022-10-06T07:11:30.741Z,98879.19
2022-10-06T07:14:01.267Z,98883.72
2022-10-06T07:16:48.092Z,98884.47
2022-10-06T07:19:34.403Z,98884.75
2022-10-06T07:22:23.050Z,98898.22
2022-10-06T07:25:08.269Z,98905.47
2022-10-06T07:27:38.087Z,98908.28
2022-10-06T07:30:05.555Z,98904.59
2022-10-06T07:32:32.391Z,98894.50
2022-10-06T07:34:59.095Z,98900.44
2022-10-06T07:37:25.923Z,98900.91
2022-10-06T07:39:52.497Z,98902.75
2022-10-06T07:42:19.145Z,98905.75
2022-10-06T07:45:05.719Z,98898.88
2022-10-06T07:47:33.392Z,98898.00
2022-10-06T07:50:00.384Z,98901.19
2022-10-06T07:52:30.457Z,98901.59
2022-10-06T07:54:58.468Z,98903.66
2022-10-06T07:57:30.177Z,98904.47
2022-10-06T08:00:01.944Z,98910.00
2022-10-06T08:02:31.547Z,98907.50
2022-10-06T08:05:01.404Z,98911.78
2022-10-06T08:07:27.994Z,98909.81
2022-10-06T08:09:54.579Z,98910.41
2022-10-06T08:12:33.213Z,98916.13
2022-10-06T08:15:07.228Z,98917.47
2022-10-06T08:17:36.509Z,98924.84
2022-10-06T08:20:04.688Z,98918.31
2022-10-06T08:22:31.370Z,98919.63
2022-10-06T08:25:06.787Z,98917.66
2022-10-06T08:27:35.395Z,98920.78
2022-10-06T08:30:03.372Z,98912.53
2022-10-06T08:32:30.023Z,98911.09
2022-10-06T08:34:57.235Z,98911.63
2022-10-06T08:37:24.620Z,98916.03
2022-10-06T08:39:51.526Z,98912.41
2022-10-06T08:42:33.726Z,98925.94
2022-10-06T08:45:04.026Z,98925.97
2022-10-06T08:47:34.883Z,98920.31
2022-10-06T08:50:05.098Z,98920.56
2022-10-06T08:52:52.095Z,98924.94
2022-10-06T08:55:34.433Z,98932.09
2022-10-06T08:58:34.355Z,98933.03
2022-10-06T09:01:16.939Z,98935.94
2022-10-06T09:03:48.542Z,98936.50
2022-10-06T09:06:47.327Z,98930.41
2022-10-06T09:09:25.291Z,98931.50
2022-10-06T09:12:04.565Z,98938.47
2022-10-06T09:14:45.824Z,98935.16
2022-10-06T09:17:19.921Z,98938.09
2022-10-06T09:19:55.395Z,98931.47
2022-10-06T09:22:23.473Z,98942.81
2022-10-06T09:24:59.138Z,98936.16
2022-10-06T09:27:36.721Z,98938.88
2022-10-06T09:30:08.715Z,98937.53
2022-10-06T09:32:36.314Z,98937.44
2022-10-06T09:35:17.306Z,98938.59
2022-10-06T09:38:08.184Z,98942.13
2022-10-06T09:40:59.354Z,98945.50
2022-10-06T09:43:28.871Z,98943.69
2022-10-06T09:46:16.721Z,98941.72
2022-10-06T09:48:43.290Z,98947.03
2022-10-06T09:51:18.322Z,98949.88
2022-10-06T09:54:10.458Z,98948.13
2022-10-06T09:56:41.283Z,98950.78
2022-10-06T09:59:34.048Z,98938.66
2022-10-06T10:02:05.036Z,98948.63
2022-10-06T10:04:37.590Z,98942.19
2022-10-06T10:07:16.383Z,98937.63
2022-10-06T10:09:43.142Z,98933.00
2022-10-06T10:12:24.654Z,98940.91
2022-10-06T10:14:52.711Z,98932.28
2022-10-06T10:17:37.992Z,98928.53
2022-10-06T10:20:20.097Z,98941.56
2022-10-06T10:22:48.689Z,98941.22
2022-10-06T10:25:24.719Z,98939.44
2022-10-06T10:28:28.457Z,98940.25
2022-10-06T10:31:13.924Z,98936.16
2022-10-06T10:34:12.395Z,98935.25
2022-10-06T10:36:51.236Z,98938.00
2022-10-06T10:39:32.643Z,98937.16
2022-10-06T10:42:04.859Z,98940.00
2022-10-06T10:44:39.199Z,98926.31
2022-10-06T10:47:28.413Z,98933.66
2022-10-06T10:50:26.756Z,98939.91
2022-10-06T10:53:00.410Z,98931.78
2022-10-06T10:55:51.059Z,98936.59
2022-10-06T10:58:35.399Z,98941.53
2022-10-06T11:01:14.828Z,98938.69
2022-10-06T11:03:41.671Z,98934.31
2022-10-06T11:06:20.452Z,98932.25
2022-10-06T11:09:08.195Z,98937.78
2022-10-06T11:12:29.417Z,98932.91
2022-10-06T11:15:03.455Z,98936.22
2022-10-06T11:17:46.974Z,98934.31
2022-10-06T11:20:33.321Z,98934.66
2022-10-06T11:23:24.055Z,98926.81
2022-10-06T11:25:56.387Z,98930.16
2022-10-06T11:28:34.358Z,98925.06
2022-10-06T11:31:30.228Z,98922.47
2022-10-06T11:34:00.726Z,98923.06
2022-10-06T11:36:45.107Z,98926.88
2022-10-06T11:39:54.657Z,98920.59
2022-10-06T11:42:41.456Z,98921.50
2022-10-06T11:45:19.720Z,98912.91
2022-10-06T11:48:18.137Z,98905.19
2022-10-06T11:50:48.850Z,98906.47
2022-10-06T11:53:39.509Z,98909.53
2022-10-06T11:56:36.202Z,98895.56
2022-10-06T11:59:12.682Z,98909.69
2022-10-06T12:02:25.283Z,98902.72
2022-10-06T12:08:40.327Z,98897.91
2022-10-06T12:11:38.413Z,98895.75
2022-10-06T12:17:37.258Z,98898.19
2022-10-06T12:21:06.480Z,98895.44
2022-10-06T12:24:02.982Z,98897.47
2022-10-06T12:26:50.393Z,98879.09
2022-10-06T12:29:51.287Z,98890.19
2022-10-06T12:32:43.714Z,98889.88
2022-10-06T12:35:30.237Z,98885.94
2022-10-06T12:38:07.111Z,98878.94
2022-10-06T12:40:48.305Z,98882.13
2022-10-06T12:43:48.507Z,98880.22
2022-10-06T12:46:43.770Z,98877.44
2022-10-06T12:49:54.434Z,98875.56
2022-10-06T12:52:48.038Z,98876.91
2022-10-06T12:55:49.244Z,98869.75
2022-10-06T12:58:31.037Z,98864.38
2022-10-06T13:01:03.250Z,98871.34
2022-10-06T13:03:30.198Z,98865.09
2022-10-06T13:06:01.205Z,98865.50
2022-10-06T13:08:31.070Z,98855.44
2022-10-06T13:11:15.907Z,98860.41
2022-10-06T13:13:58.552Z,98863.63
2022-10-06T13:16:28.942Z,98864.22
2022-10-06T13:18:58.496Z,98864.06
2022-10-06T13:21:26.071Z,98864.94
2022-10-06T13:23:52.683Z,98852.97
2022-10-06T13:26:23.915Z,98859.22
2022-10-06T13:29:00.525Z,98857.03
2022-10-06T13:31:35.434Z,98841.81
2022-10-06T13:34:12.584Z,98855.66
2022-10-06T13:36:42.127Z,98844.63
2022-10-06T13:39:35.231Z,98848.25
2022-10-06T13:42:10.196Z,98844.09
2022-10-06T13:44:47.414Z,98847.44
2022-10-06T13:47:19.666Z,98842.06
2022-10-06T13:49:51.641Z,98848.59
2022-10-06T13:52:23.439Z,98843.06
2022-10-06T13:54:58.364Z,98845.88
2022-10-06T13:57:59.457Z,98843.84
2022-10-06T14:00:46.046Z,98842.13
2022-10-06T14:03:25.496Z,98838.63
2022-10-06T14:06:26.311Z,98835.13
2022-10-06T14:08:57.182Z,98841.78
2022-10-06T14:11:28.129Z,98837.75
2022-10-06T14:14:06.097Z,98840.06
2022-10-06T14:16:33.140Z,98841.69
2022-10-06T14:19:02.455Z,98841.97
2022-10-06T14:21:47.211Z,98833.53
2022-10-06T14:24:34.356Z,98835.69
2022-10-06T14:27:03.160Z,98834.97
2022-10-06T14:29:31.497Z,98832.25
2022-10-06T14:32:17.519Z,98828.88
2022-10-06T14:34:44.579Z,98839.78
2022-10-06T14:37:15.132Z,98834.69
2022-10-06T14:39:50.319Z,98831.66
2022-10-06T14:42:17.412Z,98828.47
2022-10-06T14:44:44.808Z,98835.28
2022-10-06T14:47:11.558Z,98826.81
2022-10-06T14:49:38.206Z,98834.97
2022-10-06T14:52:05.584Z,98832.78
2022-10-06T14:54:34.335Z,98825.34
2022-10-06T14:57:00.882Z,98830.16
2022-10-06T14:59:28.015Z,98836.56
2022-10-06T15:01:54.681Z,98832.31
2022-10-06T15:04:25.279Z,98839.88
2022-10-06T15:07:10.416Z,98833.72
2022-10-06T15:09:37.270Z,98833.72
2022-10-06T15:12:04.212Z,98833.88
2022-10-06T15:14:30.856Z,98829.34
2022-10-06T15:17:00.657Z,98832.69
2022-10-06T15:19:27.391Z,98829.34
2022-10-06T15:21:54.549Z,98827.06
2022-10-06T15:24:21.256Z,98829.13
2022-10-06T15:27:06.647Z,98834.22
2022-10-06T15:29:35.164Z,98837.97
2022-10-06T15:32:03.815Z,98831.56
2022-10-06T15:34:33.575Z,98845.50
2022-10-06T15:37:01.160Z,98841.84
2022-10-06T15:39:30.249Z,98840.66
2022-10-06T15:41:57.805Z,98837.00
2022-10-06T15:44:24.547Z,98840.22
2022-10-06T15:46:53.390Z,98846.59
2022-10-06T15:49:27.770Z,98833.47
2022-10-06T15:52:03.688Z,98836.34
2022-10-06T15:54:40.765Z,98835.13
2022-10-06T15:57:09.403Z,98832.06
2022-10-06T15:59:36.997Z,98836.13
2022-10-06T16:02:15.903Z,98836.38
2022-10-06T16:04:55.682Z,98844.75
2022-10-06T16:07:22.610Z,98841.69
2022-10-06T16:09:50.938Z,98843.06
2022-10-06T16:12:22.665Z,98850.19
2022-10-06T16:14:49.508Z,98842.13
2022-10-06T16:17:16.363Z,98842.41
2022-10-06T16:19:43.196Z,98846.72
2022-10-06T16:22:13.227Z,98846.94
2022-10-06T16:24:40.191Z,98853.47
2022-10-06T16:27:10.157Z,98851.84
2022-10-06T16:29:36.767Z,98855.00
2022-10-06T16:32:03.734Z,98849.16
2022-10-06T16:34:31.416Z,98854.34
2022-10-06T16:36:58.383Z,98854.75
2022-10-06T16:39:25.207Z,98864.72
2022-10-06T16:41:51.935Z,98869.19
2022-10-06T16:44:18.574Z,98859.69
2022-10-06T16:46:45.704Z,98862.66
2022-10-06T16:49:12.672Z,98863.47
2022-10-06T16:51:42.001Z,98872.69
2022-10-06T16:54:13.463Z,98874.97
2022-10-06T16:56:42.534Z,98873.16
2022-10-06T16:59:17.358Z,98869.34
2022-10-06T17:01:44.407Z,98876.88
2022-10-06T17:04:19.518Z,98873.94
2022-10-06T17:06:48.627Z,98885.22
2022-10-06T17:09:18.399Z,98882.78
2022-10-06T17:11:53.604Z,98886.84
2022-10-06T17:14:21.555Z,98887.25
2022-10-06T17:16:50.803Z,98894.28
2022-10-06T17:19:19.008Z,98891.72
2022-10-06T17:21:48.747Z,98894.94
2022-10-06T17:24:18.236Z,98895.72
2022-10-06T17:26:47.376Z,98896.50
2022-10-06T17:29:21.112Z,98899.47
2022-10-06T17:31:49.368Z,98897.50
2022-10-06T17:34:21.050Z,98891.47
2022-10-06T17:36:49.434Z,98896.06
2022-10-06T17:39:18.657Z,98901.03
2022-10-06T17:41:46.693Z,98900.09
2022-10-06T17:44:22.767Z,98894.97
2022-10-06T17:46:52.051Z,98898.50
2022-10-06T17:49:20.837Z,98902.94
2022-10-06T17:51:48.195Z,98905.31
2022-10-06T17:54:19.050Z,98902.38
2022-10-06T17:56:50.804Z,98896.72
2022-10-06T17:59:31.925Z,98894.88
2022-10-06T18:02:00.980Z,98902.06
2022-10-06T18:04:28.975Z,98902.78
2022-10-06T18:06:55.948Z,98898.75
2022-10-06T18:09:23.007Z,98897.84
2022-10-06T18:11:55.486Z,98901.00
2022-10-06T18:14:25.053Z,98892.53
2022-10-06T18:16:58.389Z,98893.66
2022-10-06T18:19:30.335Z,98898.44
2022-10-06T18:22:00.237Z,98900.81
2022-10-06T18:24:28.664Z,98888.75
2022-10-06T18:26:56.871Z,98893.13
2022-10-06T18:29:26.745Z,98898.47
2022-10-06T18:31:54.007Z,98901.78
2022-10-06T18:37:07.902Z,98895.91
2022-10-06T18:39:34.658Z,98897.59
2022-10-06T18:42:03.615Z,98893.03
2022-10-06T18:44:48.891Z,98889.34
2022-10-06T18:47:34.359Z,98888.63
2022-10-06T18:50:01.165Z,98895.59
2022-10-06T18:52:27.764Z,98903.66
2022-10-06T18:54:54.340Z,98902.38
2022-10-06T18:57:26.581Z,98893.78
2022-10-06T18:59:54.944Z,98894.16
2022-10-06T19:02:21.711Z,98900.19
2022-10-06T19:04:48.484Z,98898.94
2022-10-06T19:07:15.325Z,98904.44
2022-10-06T19:09:46.460Z,98898.75
2022-10-06T19:12:13.859Z,98896.34
2022-10-06T19:14:47.065Z,98890.31
2022-10-06T19:17:14.898Z,98895.66
2022-10-06T19:19:51.390Z,98893.78
2022-10-06T19:22:21.583Z,98896.38
2022-10-06T19:24:48.527Z,98900.22
2022-10-06T19:27:23.987Z,98891.25
2022-10-06T19:29:54.083Z,98893.09
2022-10-06T19:32:24.805Z,98889.78
2022-10-06T19:34:52.226Z,98893.44
2022-10-06T19:37:19.310Z,98896.72
2022-10-06T19:39:48.110Z,98894.19
2022-10-06T19:42:35.383Z,98903.34
2022-10-06T19:45:03.762Z,98895.63
2022-10-06T19:47:30.367Z,98901.69
2022-10-06T19:50:02.138Z,98901.81
2022-10-06T19:52:31.349Z,98899.66
2022-10-06T19:54:58.093Z,98902.19
2022-10-06T19:57:25.110Z,98899.28
2022-10-06T19:59:51.744Z,98897.44
2022-10-06T20:02:18.335Z,98891.75
2022-10-06T20:04:45.442Z,98897.63
2022-10-06T20:07:12.481Z,98906.94
2022-10-06T20:09:39.047Z,98895.75
2022-10-06T20:12:05.957Z,98900.34
2022-10-06T20:14:32.799Z,98899.44
2022-10-06T20:16:59.488Z,98895.59
2022-10-06T20:19:26.325Z,98893.00
2022-10-06T20:21:54.050Z,98905.06
2022-10-06T20:24:23.434Z,98900.47
2022-10-06T20:26:50.900Z,98900.84
2022-10-06T20:29:23.234Z,98899.53
2022-10-06T20:31:52.126Z,98899.38
2022-10-06T20:34:24.641Z,98898.59
2022-10-06T20:36:56.021Z,98900.44
2022-10-06T20:39:42.569Z,98896.56
2022-10-06T20:42:14.937Z,98898.91
2022-10-06T20:44:42.640Z,98896.91
2022-10-06T20:47:11.364Z,98898.00
2022-10-06T20:49:38.386Z,98894.13
2022-10-06T20:52:06.198Z,98889.34
2022-10-06T20:54:35.667Z,98888.97
2022-10-06T20:57:05.105Z,98888.97
2022-10-06T20:59:35.396Z,98883.84
2022-10-06T21:02:03.198Z,98880.50
2022-10-06T21:04:30.095Z,98885.06
2022-10-06T21:06:57.265Z,98887.22
2022-10-06T21:09:28.621Z,98888.50
2022-10-06T21:11:57.261Z,98877.69
2022-10-06T21:14:23.917Z,98869.69
2022-10-06T21:16:51.233Z,98874.09
2022-10-06T21:19:19.369Z,98866.03
2022-10-06T21:21:53.162Z,98866.25
2022-10-06T21:24:20.382Z,98871.16
2022-10-06T21:26:47.564Z,98863.69
2022-10-06T21:29:15.526Z,98865.16
2022-10-06T21:31:43.056Z,98870.81
2022-10-06T21:34:10.506Z,98862.41
2022-10-06T21:36:37.268Z,98856.00
2022-10-06T21:39:05.684Z,98850.88
2022-10-06T21:41:41.150Z,98841.53
2022-10-06T21:44:14.711Z,98839.53
2022-10-06T21:46:52.226Z,98835.50
2022-10-06T21:49:21.241Z,98842.66
2022-10-06T21:51:50.526Z,98841.75
2022-10-06T21:54:18.085Z,98836.47
2022-10-06T21:56:46.034Z,98828.41
2022-10-06T21:59:12.976Z,98830.25
2022-10-06T22:01:41.707Z,98836.25
2022-10-06T22:04:08.800Z,98832.06
2022-10-06T22:06:37.432Z,98828.94
2022-10-06T22:09:06.213Z,98824.88
2022-10-06T22:11:38.643Z,98825.22
2022-10-06T22:14:06.351Z,98825.06
2022-10-06T22:16:35.351Z,98825.78
2022-10-06T22:19:03.915Z,98821.91
2022-10-06T22:21:33.718Z,98820.28
2022-10-06T22:24:03.037Z,98819.88
2022-10-06T22:26:31.384Z,98809.59
2022-10-06T22:28:58.833Z,98807.91
2022-10-06T22:31:27.658Z,98805.69
2022-10-06T22:33:56.741Z,98799.25
2022-10-06T22:36:24.070Z,98794.88
2022-10-06T22:38:51.041Z,98796.88
2022-10-06T22:41:17.788Z,98802.31
2022-10-06T22:43:44.662Z,98798.44
2022-10-06T22:46:12.114Z,98795.16
2022-10-06T22:48:39.341Z,98792.78
2022-10-06T22:51:06.448Z,98791.31
2022-10-06T22:53:33.623Z,98803.00
2022-10-06T22:56:01.461Z,98785.09
2022-10-06T22:58:29.476Z,98790.78
2022-10-06T23:00:56.331Z,98788.91
2022-10-06T23:03:24.002Z,98785.25
2022-10-06T23:05:58.748Z,98788.38
2022-10-06T23:08:28.969Z,98777.97
2022-10-06T23:11:09.578Z,98781.44
2022-10-06T23:13:36.359Z,98779.56
2022-10-06T23:16:08.419Z,98775.50
2022-10-06T23:18:37.340Z,98776.06
2022-10-06T23:21:19.119Z,98776.41
2022-10-06T23:23:46.456Z,98774.91
2022-10-06T23:26:15.045Z,98772.19
2022-10-06T23:28:42.448Z,98766.53
2022-10-06T23:31:10.600Z,98774.19
2022-10-06T23:33:37.488Z,98764.31
2022-10-06T23:36:14.486Z,98763.78
2022-10-06T23:38:42.329Z,98777.56
2022-10-06T23:41:09.072Z,98778.44
2022-10-06T23:43:35.762Z,98774.97
2022-10-06T23:46:03.577Z,98772.41
2022-10-06T23:48:30.415Z,98772.97
2022-10-06T23:50:58.415Z,98765.16
2022-10-06T23:53:25.637Z,98766.28
2022-10-06T23:55:52.352Z,98763.53
2022-10-06T23:58:19.191Z,98765.34
